Temp: 18.3°C   Baro: 1017.7mb
  Wind: 0.0mph   Dir: W (274°)
  Rain: 0.2mm (0.0mm/hr)
  Solar: 0W/m2  Hum: 85%
 
Bath Spa Weather Station Historical Data
Daily Summary for July 12, 2019 Units:  Metric    English   Both
Daily Weekly Monthly Yearly Custom
  High: Low: Average:
Temperature: 18.5 °C 10.8 °C 14.4 °C
Dew Point: 12.7 °C 8.3 °C 10.8 °C
Humidity: 95% 51.5% 80%
Wind Speed: 19.6km/h 0km/h 5km/h
Wind Gust: 35.4km/h - -
Wind- - WNW
Pressure: 1018.2 hPa 1013.1 hPa -
Precipitation: 4.06 mm    
Historical Graphs
 
 
Tabular Data for July 12, 2019
Time Temperature Dew Point Pressure Wind Wind Speed Wind Gust Humidity Rainfall Rate (Hourly) solar
00:04 13.9 °C 12.6 °C 1013.1 hPa Calm     91% 0.76 mm 0 W/m2
00:09 13.9 °C 12.5 °C 1013.1 hPa Calm     91% 0.51 mm 0 W/m2
00:14 13.8 °C 12.4 °C 1013.1 hPa WNW 0.3 km/h 3.2 km/h 91% 0.25 mm 0 W/m2
00:19 13.8 °C 12.4 °C 1013.1 hPa Calm   3.2 km/h 91% 0 mm 0 W/m2
00:24 13.8 °C 12.4 °C 1013.1 hPa Calm     91% 0 mm 0 W/m2
00:29 13.8 °C 12.5 °C 1013.1 hPa WNW 0.3 km/h 3.2 km/h 91.9% 0 mm 0 W/m2
00:34 13.8 °C 12.4 °C 1013.1 hPa Calm   1.6 km/h 92% 0 mm 0 W/m2
00:39 13.7 °C 12.4 °C 1013.1 hPa WNW 0.2 km/h 1.6 km/h 92% 0 mm 0 W/m2
00:44 13.7 °C 12.4 °C 1013.1 hPa WNW 0.2 km/h 1.6 km/h 92% 0 mm 0 W/m2
00:49 13.7 °C 12.4 °C 1013.1 hPa Calm   1.6 km/h 92% 0 mm 0 W/m2
00:54 13.7 °C 12.4 °C 1013.1 hPa Calm   1.6 km/h 92% 0 mm 0 W/m2
00:59 13.7 °C 12.3 °C 1013.1 hPa Calm   1.6 km/h 92% 0 mm 0 W/m2
01:04 13.6 °C 12.3 °C 1013.1 hPa WNW 0.2 km/h 1.6 km/h 92% 0 mm 0 W/m2
01:09 13.6 °C 12.3 °C 1013.1 hPa Calm   1.6 km/h 92% 0 mm 0 W/m2
01:14 13.5 °C 12.2 °C 1013.1 hPa Calm     92% 0 mm 0 W/m2
01:19 13.5 °C 12.2 °C 1013.1 hPa WNW 0.2 km/h 1.6 km/h 92% 0 mm 0 W/m2
01:24 13.5 °C 12.4 °C 1013.1 hPa WNW 0.2 km/h 1.6 km/h 93% 0 mm 0 W/m2
01:29 13.4 °C 12.3 °C 1013.1 hPa WNW 0.2 km/h 1.6 km/h 93% 0 mm 0 W/m2
01:34 13.4 °C 12.3 °C 1013.1 hPa WNW 0.6 km/h 3.2 km/h 93% 0 mm 0 W/m2
01:39 13.3 °C 12.3 °C 1013.1 hPa WNW 0.8 km/h 3.2 km/h 93% 0 mm 0 W/m2
01:44 13.3 °C 12.2 °C 1013.1 hPa WNW 0.5 km/h 3.2 km/h 93% 0 mm 0 W/m2
01:49 13.2 °C 12.1 °C 1013.1 hPa WNW 0.2 km/h 1.6 km/h 93% 0 mm 0 W/m2
01:54 13.2 °C 12.1 °C 1013.1 hPa WNW 0.2 km/h 1.6 km/h 93% 0 mm 0 W/m2
01:59 13.2 °C 12.1 °C 1013.1 hPa Calm   1.6 km/h 93% 0 mm 0 W/m2
02:04 13.1 °C 11.9 °C 1013.1 hPa Calm   1.6 km/h 93% 0 mm 0 W/m2
02:09 13 °C 11.9 °C 1013.1 hPa Calm     93% 0 mm 0 W/m2
02:14 12.9 °C 11.8 °C 1013.1 hPa Calm     93% 0 mm 0 W/m2
02:19 12.9 °C 11.8 °C 1013.1 hPa Calm     93% 0 mm 0 W/m2
02:24 12.9 °C 11.8 °C 1013.1 hPa Calm     93% 0 mm 0 W/m2
02:29 12.8 °C 11.7 °C 1013.1 hPa Calm     93% 0 mm 0 W/m2
02:34 12.8 °C 11.7 °C 1013.1 hPa Calm   1.6 km/h 93% 0 mm 0 W/m2
02:39 12.7 °C 11.6 °C 1013.1 hPa Calm   1.6 km/h 93% 0.25 mm 0 W/m2
02:44 12.7 °C 11.7 °C 1013.1 hPa Calm     93.2% 0.25 mm 0 W/m2
02:49 12.7 °C 11.8 °C 1013.1 hPa Calm     94% 0.25 mm 0 W/m2
02:54 12.7 °C 11.7 °C 1013.1 hPa Calm     94% 0.25 mm 0 W/m2
02:59 12.6 °C 11.7 °C 1013.1 hPa Calm     94% 0.25 mm 0 W/m2
03:04 12.6 °C 11.7 °C 1013.1 hPa Calm     94% 0.25 mm 0 W/m2
03:09 12.6 °C 11.7 °C 1013.1 hPa Calm     94% 0.25 mm 0 W/m2
03:14 12.6 °C 11.7 °C 1013.1 hPa Calm     94% 0.25 mm 0 W/m2
03:19 12.7 °C 11.8 °C 1013.1 hPa Calm     94% 0.25 mm 0 W/m2
03:24 12.7 °C 11.8 °C 1013.1 hPa Calm     94% 0.25 mm 0 W/m2
03:29 12.7 °C 11.8 °C 1013.1 hPa Calm     94% 0.25 mm 0 W/m2
03:34 12.7 °C 11.8 °C 1013.1 hPa WNW 0.5 km/h 1.6 km/h 94% 0.25 mm 0 W/m2
03:39 12.7 °C 11.8 °C 1013.1 hPa WNW 0.6 km/h 3.2 km/h 94% 0.25 mm 0 W/m2
03:44 12.6 °C 11.7 °C 1013.1 hPa Calm   1.6 km/h 94% 0 mm 0 W/m2
03:49 12.5 °C 11.6 °C 1013.1 hPa Calm     94% 0 mm 0 W/m2
03:54 12.5 °C 11.6 °C 1013.1 hPa WNW 0.3 km/h 1.6 km/h 94% 0 mm 0 W/m2
03:59 12.5 °C 11.6 °C 1013.1 hPa WNW 0.8 km/h 3.2 km/h 94% 0 mm 0 W/m2
04:04 12.4 °C 11.6 °C 1013.1 hPa WNW 0.3 km/h 3.2 km/h 94% 0 mm 0 W/m2
04:09 12.4 °C 11.5 °C 1013.1 hPa WNW 0.6 km/h 3.2 km/h 94% 0 mm 0 W/m2
04:14 12.4 °C 11.5 °C 1013.1 hPa Calm   3.2 km/h 94% 0 mm 0 W/m2
04:19 12.4 °C 11.6 °C 1013.1 hPa Calm     94% 0 mm 0 W/m2
04:24 12.5 °C 11.6 °C 1013.1 hPa Calm     94% 0 mm 0 W/m2
04:29 12.5 °C 11.6 °C 1013.1 hPa Calm     94% 0 mm 0 W/m2
04:34 12.5 °C 11.6 °C 1013.1 hPa Calm     94% 0 mm 0 W/m2
04:39 12.5 °C 11.6 °C 1013.1 hPa Calm     94% 0 mm 0 W/m2
04:44 12.5 °C 11.6 °C 1013.1 hPa Calm     94% 0 mm 0 W/m2
04:49 12.5 °C 11.6 °C 1013.1 hPa Calm     94% 0 mm 0 W/m2
04:54 12.5 °C 11.6 °C 1013.1 hPa Calm     94% 0 mm 0 W/m2
04:59 12.5 °C 11.6 °C 1013.1 hPa Calm     94% 0 mm 0 W/m2
05:04 12.5 °C 11.6 °C 1013.1 hPa Calm     94% 0 mm 0 W/m2
05:09 12.5 °C 11.6 °C 1013.1 hPa Calm     94% 0 mm 0 W/m2
05:14 12.5 °C 11.6 °C 1013.1 hPa Calm     94% 0 mm 0 W/m2
05:19 12.5 °C 11.6 °C 1013.1 hPa Calm     94% 0 mm 0 W/m2
05:24 12.4 °C 11.5 °C 1013.1 hPa Calm     94% 0 mm 0 W/m2
05:29 12.4 °C 11.5 °C 1013.4 hPa Calm     94% 0 mm 0 W/m2
05:34 12.4 °C 11.5 °C 1013.4 hPa Calm     94% 0 mm 0 W/m2
05:39 12.3 °C 11.4 °C 1013.4 hPa Calm   1.6 km/h 94.4% 0 mm 0 W/m2
05:44 12.3 °C 11.6 °C 1013.4 hPa Calm   1.6 km/h 95% 0 mm 0 W/m2
05:49 12.3 °C 11.5 °C 1013.1 hPa Calm     95% 0 mm 0 W/m2
05:54 12.3 °C 11.4 °C 1013.1 hPa Calm     94.6% 0 mm 0 W/m2
05:59 12.3 °C 11.4 °C 1013.4 hPa Calm     94.4% 0 mm 5 W/m2
06:04 12.3 °C 11.4 °C 1013.4 hPa Calm     94.4% 0 mm 7 W/m2
06:09 12.3 °C 11.4 °C 1013.4 hPa Calm     94.4% 0 mm 9 W/m2
06:14 12.3 °C 11.4 °C 1013.4 hPa Calm     94% 0 mm 12 W/m2
06:19 12.3 °C 11.4 °C 1013.4 hPa Calm     94.5% 0 mm 16 W/m2
06:24 12.3 °C 11.5 °C 1013.4 hPa Calm     94.8% 0 mm 18 W/m2
06:29 12.4 °C 11.6 °C 1013.4 hPa Calm     95% 0 mm 23 W/m2
06:34 12.3 °C 11.6 °C 1013.4 hPa Calm     95% 0 mm 30 W/m2
06:39 12.3 °C 11.6 °C 1013.4 hPa Calm     95% 0 mm 33 W/m2
06:44 12.4 °C 11.6 °C 1013.4 hPa WNW 0.2 km/h 1.6 km/h 95% 0 mm 37 W/m2
06:49 12.4 °C 11.6 °C 1013.4 hPa Calm     95% 0 mm 42 W/m2
06:54 12.4 °C 11.6 °C 1013.4 hPa Calm     95% 0 mm 44 W/m2
06:59 12.4 °C 11.6 °C 1013.4 hPa Calm     95% 0 mm 58 W/m2
07:04 12.4 °C 11.6 °C 1013.4 hPa Calm     95% 0 mm 62 W/m2
07:09 12.4 °C 11.6 °C 1013.4 hPa Calm     95% 0 mm 62 W/m2
07:14 12.4 °C 11.7 °C 1013.4 hPa Calm     95% 0 mm 65 W/m2
07:19 12.5 °C 11.7 °C 1013.4 hPa Calm     95% 0 mm 74 W/m2
07:24 12.5 °C 11.7 °C 1013.4 hPa Calm     95% 0 mm 76 W/m2
07:29 12.5 °C 11.7 °C 1013.4 hPa Calm   1.6 km/h 95% 0 mm 74 W/m2
07:34 12.6 °C 11.7 °C 1013.8 hPa Calm   1.6 km/h 95% 0 mm 76 W/m2
07:39 12.7 °C 11.9 °C 1013.8 hPa Calm     95% 0 mm 113 W/m2
07:44 12.7 °C 11.9 °C 1013.8 hPa Calm     95% 0 mm 132 W/m2
07:49 12.8 °C 12 °C 1013.8 hPa Calm     95% 0 mm 151 W/m2
07:54 12.9 °C 12.1 °C 1013.8 hPa WNW 0.5 km/h 1.6 km/h 95% 0 mm 158 W/m2
07:59 12.9 °C 12.1 °C 1013.8 hPa Calm   1.6 km/h 95% 0 mm 158 W/m2
08:04 13 °C 12.2 °C 1014.1 hPa Calm   1.6 km/h 95% 0 mm 139 W/m2
08:09 13 °C 12.2 °C 1014.1 hPa WNW 0.8 km/h 3.2 km/h 95% 0 mm 125 W/m2
08:14 13.1 °C 12.3 °C 1014.1 hPa WNW 3.7 km/h 6.4 km/h 95% 0 mm 121 W/m2
08:19 13.1 °C 12.3 °C 1014.1 hPa WNW 2.9 km/h 6.4 km/h 95% 0 mm 111 W/m2
08:24 13.1 °C 12.3 °C 1014.1 hPa WNW 1.6 km/h 6.4 km/h 95% 0 mm 107 W/m2
08:29 13.2 °C 12.4 °C 1014.1 hPa WNW 1.6 km/h 4.8 km/h 95% 0 mm 139 W/m2
08:34 13.2 °C 12.4 °C 1014.1 hPa WNW 1 km/h 4.8 km/h 95% 0 mm 169 W/m2
08:39 13.3 °C 12.4 °C 1014.1 hPa Calm   3.2 km/h 95% 0 mm 218 W/m2
08:44 13.3 °C 12.5 °C 1014.1 hPa WNW 2.6 km/h 4.8 km/h 95% 0 mm 204 W/m2
08:49 13.2 °C 12.3 °C 1014.1 hPa Calm   4.8 km/h 95% 0 mm 165 W/m2
08:54 13.2 °C 12.4 °C 1014.1 hPa WNW 0.5 km/h 3.2 km/h 95% 0 mm 162 W/m2
08:59 13.2 °C 12.4 °C 1014.1 hPa WNW 0.2 km/h 3.2 km/h 95% 0 mm 169 W/m2
09:04 13.3 °C 12.5 °C 1014.4 hPa Calm   1.6 km/h 94.3% 0 mm 172 W/m2
09:09 13.5 °C 12.7 °C 1014.4 hPa WNW 1.3 km/h 4.8 km/h 94.4% 0 mm 181 W/m2
09:14 13.3 °C 12.4 °C 1014.4 hPa WNW 1.8 km/h 6.4 km/h 94% 0 mm 185 W/m2
09:19 13.4 °C 12.6 °C 1014.4 hPa WNW 0.2 km/h 3.2 km/h 94% 0 mm 207 W/m2
09:24 13.6 °C 12.6 °C 1014.4 hPa WNW 1.9 km/h 6.4 km/h 93.2% 0 mm 218 W/m2
09:29 13.7 °C 12.6 °C 1014.4 hPa WNW 2.4 km/h 6.4 km/h 92.7% 0 mm 290 W/m2
09:34 14 °C 12.6 °C 1014.4 hPa WNW 0.6 km/h 6.4 km/h 91.2% 0 mm 362 W/m2
09:39 14.3 °C 12.4 °C 1014.4 hPa WNW 3.4 km/h 8 km/h 88.2% 0 mm 522 W/m2
09:44 14.7 °C 12 °C 1014.4 hPa NW 6.1 km/h 11.3 km/h 84.2% 0 mm 554 W/m2
09:49 14.8 °C 11.7 °C 1014.4 hPa NW 5.6 km/h 12.9 km/h 81.5% 0 mm 554 W/m2
09:54 14.8 °C 11.7 °C 1014.4 hPa NNW 5 km/h 12.9 km/h 81% 0 mm 283 W/m2
09:59 14.8 °C 11.6 °C 1014.4 hPa NNW 3.9 km/h 9.7 km/h 81% 0 mm 316 W/m2
10:04 14.8 °C 11.6 °C 1014.4 hPa NNW 4.2 km/h 9.7 km/h 81% 0 mm 657 W/m2
10:09 14.9 °C 11.4 °C 1014.4 hPa NW 6.4 km/h 14.5 km/h 79.6% 0 mm 657 W/m2
10:14 15 °C 11.3 °C 1014.4 hPa NW 5.5 km/h 14.5 km/h 78.6% 0 mm 566 W/m2
10:19 15.2 °C 11.1 °C 1014.4 hPa NW 5.6 km/h 14.5 km/h 76% 0 mm 538 W/m2
10:24 15.4 °C 11 °C 1014.4 hPa WNW 5.3 km/h 14.5 km/h 74.7% 0 mm 450 W/m2
10:29 15.4 °C 10.9 °C 1014.8 hPa NNW 7.2 km/h 12.9 km/h 74.4% 0 mm 371 W/m2
10:34 15.2 °C 10.7 °C 1014.8 hPa NNW 6.1 km/h 12.9 km/h 74.3% 0 mm 448 W/m2
10:39 15.3 °C 10.8 °C 1014.8 hPa NW 5.5 km/h 11.3 km/h 74.4% 0 mm 547 W/m2
10:44 15.8 °C 11.2 °C 1014.8 hPa NW 3.2 km/h 9.7 km/h 73.8% 0 mm 577 W/m2
10:49 16 °C 10.8 °C 1014.8 hPa NW 6.6 km/h 11.3 km/h 71.3% 0 mm 519 W/m2
10:54 15.8 °C 10.7 °C 1014.8 hPa WNW 2.9 km/h 11.3 km/h 71.5% 0 mm 346 W/m2
10:59 15.8 °C 10.8 °C 1014.8 hPa WNW 5.1 km/h 11.3 km/h 71.8% 0 mm 338 W/m2
11:04 15.7 °C 10.5 °C 1014.8 hPa NW 7.1 km/h 14.5 km/h 71.2% 0 mm 322 W/m2
11:09 15.6 °C 10.5 °C 1014.8 hPa NW 2.4 km/h 11.3 km/h 71.5% 0 mm 322 W/m2
11:14 15.8 °C 10.8 °C 1014.8 hPa NNW 3.5 km/h 9.7 km/h 72% 0 mm 279 W/m2
11:19 15.8 °C 10.8 °C 1014.8 hPa NNW 5.1 km/h 11.3 km/h 71.8% 0 mm 279 W/m2
11:24 15.8 °C 10.7 °C 1014.8 hPa WNW 6.8 km/h 14.5 km/h 71.6% 0 mm 338 W/m2
11:29 15.7 °C 10.4 °C 1014.8 hPa WNW 6.3 km/h 14.5 km/h 71% 0 mm 290 W/m2
11:34 15.6 °C 10.4 °C 1014.8 hPa NW 2.1 km/h 14.5 km/h 71.1% 0 mm 355 W/m2
11:39 15.8 °C 10.5 °C 1014.8 hPa NW 3.1 km/h 8 km/h 70.8% 0 mm 768 W/m2
11:44 16.7 °C 11.1 °C 1014.8 hPa NW 1.4 km/h 4.8 km/h 69.5% 0 mm 798 W/m2
11:49 16.9 °C 10.7 °C 1014.8 hPa NW 2.9 km/h 9.7 km/h 66.7% 0 mm 877 W/m2
11:54 16.9 °C 10.8 °C 1014.8 hPa NW 1.4 km/h 6.4 km/h 67.1% 0 mm 784 W/m2
11:59 17 °C 10.6 °C 1014.4 hPa NW 2.3 km/h 9.7 km/h 66% 0 mm 399 W/m2
12:04 17 °C 10.3 °C 1014.4 hPa NW 7.9 km/h 16.1 km/h 64.8% 0 mm 854 W/m2
12:09 17.1 °C 10.7 °C 1014.4 hPa NW 7.2 km/h 17.7 km/h 65.8% 0 mm 404 W/m2
12:14 16.7 °C 10.3 °C 1014.8 hPa NNW 7.4 km/h 17.7 km/h 65.6% 0 mm 246 W/m2
12:19 16.3 °C 9.8 °C 1014.8 hPa NW 8.5 km/h 16.1 km/h 65.7% 0 mm 234 W/m2
12:24 16.5 °C 9.8 °C 1014.8 hPa NW 3.9 km/h 14.5 km/h 64.8% 0 mm 341 W/m2
12:29 16.8 °C 10 °C 1014.8 hPa NW 11.7 km/h 22.5 km/h 64.2% 0 mm 436 W/m2
12:34 16.9 °C 10.5 °C 1014.8 hPa WNW 8.7 km/h 22.5 km/h 66% 0 mm 415 W/m2
12:39 16.9 °C 10.4 °C 1014.8 hPa WNW 11.7 km/h 19.3 km/h 65.6% 0.25 mm 364 W/m2
12:44 16.7 °C 10.3 °C 1014.8 hPa NW 8.7 km/h 19.3 km/h 66% 0.25 mm 329 W/m2
12:49 16.5 °C 10.4 °C 1014.8 hPa WNW 10.5 km/h 19.3 km/h 66.9% 0.25 mm 211 W/m2
12:54 16.4 °C 10.5 °C 1014.8 hPa WNW 9.2 km/h 19.3 km/h 67.8% 0.25 mm 278 W/m2
12:59 16.4 °C 10.3 °C 1014.8 hPa WNW 12.2 km/h 20.9 km/h 67.3% 0.25 mm 346 W/m2
13:04 16.4 °C 10.2 °C 1014.8 hPa NW 9.8 km/h 20.9 km/h 66.8% 0.25 mm 986 W/m2
13:09 17.1 °C 10.6 °C 1014.8 hPa WNW 8.2 km/h 20.9 km/h 65.8% 0.25 mm 954 W/m2
13:14 17.1 °C 10.2 °C 1014.8 hPa WNW 12.1 km/h 20.9 km/h 64% 0.25 mm 954 W/m2
13:19 16.5 °C 10.4 °C 1014.8 hPa NW 9.5 km/h 19.3 km/h 67.5% 0.25 mm 141 W/m2
13:24 15.9 °C 10.7 °C 1014.8 hPa NW 11.1 km/h 20.9 km/h 71% 0.25 mm 241 W/m2
13:29 15.6 °C 10.8 °C 1014.8 hPa NW 7.9 km/h 14.5 km/h 73.1% 0.25 mm 392 W/m2
13:34 15.5 °C 10.9 °C 1014.8 hPa NW 6.4 km/h 14.5 km/h 74% 0.25 mm 568 W/m2
13:39 15.9 °C 11.2 °C 1014.8 hPa NW 10.9 km/h 22.5 km/h 73.2% 0 mm 814 W/m2
13:44 16.4 °C 10.8 °C 1014.8 hPa NW 11.1 km/h 24.1 km/h 69.8% 0 mm 986 W/m2
13:49 16.9 °C 11 °C 1014.8 hPa WNW 11.4 km/h 24.1 km/h 68% 0 mm 997 W/m2
13:54 17 °C 10.9 °C 1014.8 hPa WNW 9.5 km/h 22.5 km/h 67.7% 0 mm 923 W/m2
13:59 17.2 °C 10.7 °C 1014.8 hPa WNW 8.7 km/h 19.3 km/h 65.6% 0 mm 896 W/m2
14:04 17.4 °C 10.5 °C 1014.8 hPa NW 9.8 km/h 16.1 km/h 63.8% 0 mm 561 W/m2
14:09 17.3 °C 9.7 °C 1014.8 hPa NW 13.2 km/h 20.9 km/h 61% 0 mm 912 W/m2
14:14 17.4 °C 10 °C 1014.8 hPa NNW 17.4 km/h 29 km/h 61.7% 0 mm 954 W/m2
14:19 16.8 °C 10.4 °C 1015.1 hPa NNW 11.6 km/h 25.7 km/h 66.2% 0 mm 963 W/m2
14:24 16.4 °C 10.3 °C 1015.1 hPa North 10.8 km/h 19.3 km/h 66.9% 0 mm 281 W/m2
14:29 16.1 °C 10.2 °C 1015.1 hPa North 8.5 km/h 19.3 km/h 68% 0 mm 214 W/m2
14:34 16.1 °C 10.3 °C 1015.1 hPa NW 5 km/h 16.1 km/h 68.5% 0 mm 844 W/m2
14:39 16.5 °C 10.3 °C 1015.1 hPa NNW 9 km/h 16.1 km/h 66.9% 0 mm 795 W/m2
14:44 17.1 °C 10.3 °C 1015.1 hPa NW 9.7 km/h 20.9 km/h 64.1% 0 mm 784 W/m2
14:49 17.4 °C 9.8 °C 1015.1 hPa North 10 km/h 20.9 km/h 61% 0 mm 784 W/m2
14:54 17.6 °C 9.7 °C 1015.1 hPa West 10 km/h 19.3 km/h 59.8% 0 mm 775 W/m2
14:59 17.8 °C 9.9 °C 1015.1 hPa WNW 8.5 km/h 17.7 km/h 59.5% 0 mm 796 W/m2
15:04 18.3 °C 9.9 °C 1014.8 hPa WNW 6.8 km/h 17.7 km/h 58.2% 0 mm 788 W/m2
15:09 18.5 °C 8.8 °C 1015.1 hPa WNW 12.7 km/h 20.9 km/h 53.3% 0 mm 775 W/m2
15:14 18.3 °C 8.5 °C 1015.1 hPa NW 15.1 km/h 20.9 km/h 52.9% 0 mm 777 W/m2
15:19 18.1 °C 8.4 °C 1015.1 hPa NW 8.2 km/h 20.9 km/h 53.3% 0 mm 814 W/m2
15:24 18.4 °C 8.6 °C 1015.1 hPa WNW 12.6 km/h 24.1 km/h 52.5% 0 mm 833 W/m2
15:29 18.4 °C 8.3 °C 1014.8 hPa WNW 13.4 km/h 24.1 km/h 51.5% 0 mm 847 W/m2
15:34 18.4 °C 8.6 °C 1015.1 hPa WNW 11.1 km/h 24.1 km/h 53% 0 mm 847 W/m2
15:39 17.9 °C 8.7 °C 1015.1 hPa WNW 11.4 km/h 24.1 km/h 54.6% 0 mm 236 W/m2
15:44 17.6 °C 8.8 °C 1015.1 hPa WNW 13.2 km/h 24.1 km/h 56.2% 0 mm 163 W/m2
15:49 17.3 °C 8.9 °C 1015.1 hPa WNW 10.8 km/h 19.3 km/h 57.8% 0 mm 162 W/m2
15:54 17.2 °C 9.2 °C 1015.1 hPa WNW 9.8 km/h 19.3 km/h 59% 0 mm 162 W/m2
15:59 17.2 °C 9.3 °C 1015.1 hPa WNW 7.1 km/h 19.3 km/h 59.9% 0 mm 162 W/m2
16:04 17.2 °C 9.1 °C 1015.1 hPa WNW 10.8 km/h 17.7 km/h 58.9% 0 mm 193 W/m2
16:09 17.2 °C 9.4 °C 1015.1 hPa West 10.8 km/h 22.5 km/h 60.5% 0 mm 230 W/m2
16:14 17.1 °C 10.2 °C 1015.1 hPa West 9.8 km/h 22.5 km/h 64.1% 0 mm 225 W/m2
16:19 17.1 °C 10.4 °C 1015.1 hPa West 15.3 km/h 29 km/h 65.1% 0 mm 162 W/m2
16:24 16.9 °C 10.5 °C 1015.1 hPa WNW 16.3 km/h 25.7 km/h 65.8% 0 mm 250 W/m2
16:29 16.8 °C 10.9 °C 1015.5 hPa NW 12.6 km/h 29 km/h 68.2% 0.25 mm 209 W/m2
16:34 15.9 °C 10.6 °C 1015.5 hPa NNW 8 km/h 16.1 km/h 70.4% 0.25 mm 185 W/m2
16:39 15.3 °C 10.4 °C 1015.1 hPa North 5.6 km/h 17.7 km/h 72.5% 0.25 mm 185 W/m2
16:44 14.9 °C 10.1 °C 1015.5 hPa North 3.2 km/h 17.7 km/h 73% 0.25 mm 325 W/m2
16:49 15.2 °C 10.5 °C 1015.1 hPa WNW 6.9 km/h 17.7 km/h 73.5% 0.25 mm 325 W/m2
16:54 15.6 °C 10.7 °C 1015.5 hPa WNW 11.1 km/h 30.6 km/h 72.4% 0.25 mm 258 W/m2
16:59 16.2 °C 10.7 °C 1015.5 hPa WNW 17.9 km/h 35.4 km/h 70.1% 0.25 mm 364 W/m2
17:04 16.4 °C 10.6 °C 1015.5 hPa WNW 11.7 km/h 27.4 km/h 68.4% 0.25 mm 323 W/m2
17:09 16.7 °C 10.5 °C 1015.5 hPa WNW 16.7 km/h 29 km/h 66.9% 0.25 mm 499 W/m2
17:14 17 °C 10.7 °C 1015.5 hPa WNW 11.4 km/h 24.1 km/h 66.5% 0.25 mm 580 W/m2
17:19 17.4 °C 10.7 °C 1015.5 hPa WNW 14.6 km/h 25.7 km/h 64.7% 0.25 mm 566 W/m2
17:24 17.5 °C 10.4 °C 1015.5 hPa West 19.6 km/h 30.6 km/h 63% 0.25 mm 522 W/m2
17:29 17.4 °C 10.4 °C 1015.5 hPa WNW 15.9 km/h 30.6 km/h 63.4% 0.25 mm 501 W/m2
17:34 17.7 °C 10.7 °C 1015.5 hPa WNW 12.7 km/h 24.1 km/h 64% 0 mm 496 W/m2
17:39 17.7 °C 10.5 °C 1015.5 hPa WNW 13.2 km/h 29 km/h 62.6% 0 mm 448 W/m2
17:44 17.7 °C 10.4 °C 1015.5 hPa WNW 14 km/h 27.4 km/h 62.6% 0 mm 434 W/m2
17:49 17.6 °C 10.9 °C 1015.5 hPa WNW 14.6 km/h 29 km/h 64.9% 0 mm 413 W/m2
17:54 17.5 °C 11.2 °C 1015.5 hPa WNW 13.5 km/h 27.4 km/h 66.5% 0 mm 424 W/m2
17:59 17.4 °C 11.2 °C 1015.5 hPa WNW 12.9 km/h 25.7 km/h 66.8% 0 mm 415 W/m2
18:04 17.5 °C 11.3 °C 1015.5 hPa WNW 13.8 km/h 33.8 km/h 67% 0 mm 367 W/m2
18:09 17.3 °C 11.1 °C 1015.5 hPa WNW 14.5 km/h 24.1 km/h 67% 0 mm 343 W/m2
18:14 16.9 °C 10.8 °C 1015.8 hPa West 15.8 km/h 27.4 km/h 67% 0 mm 334 W/m2
18:19 16.9 °C 10.7 °C 1015.8 hPa WNW 15.3 km/h 27.4 km/h 67% 0 mm 315 W/m2
18:24 16.9 °C 10.7 °C 1015.8 hPa WNW 15.4 km/h 29 km/h 67% 0 mm 306 W/m2
18:29 16.8 °C 10.5 °C 1015.8 hPa WNW 16.7 km/h 30.6 km/h 66.5% 0 mm 274 W/m2
18:34 16.7 °C 10.3 °C 1015.8 hPa WNW 14.6 km/h 27.4 km/h 66% 0 mm 267 W/m2
18:39 16.5 °C 10.2 °C 1015.8 hPa West 13.4 km/h 29 km/h 66.3% 0 mm 246 W/m2
18:44 16.4 °C 10.3 °C 1015.8 hPa West 11.6 km/h 24.1 km/h 66.7% 0 mm 202 W/m2
18:49 16.4 °C 10.1 °C 1016.1 hPa WNW 14 km/h 25.7 km/h 66.3% 0 mm 211 W/m2
18:54 16.5 °C 10.1 °C 1016.1 hPa West 11.7 km/h 25.7 km/h 66% 0 mm 211 W/m2
18:59 16.4 °C 10.1 °C 1016.1 hPa WNW 15.1 km/h 29 km/h 66% 0 mm 193 W/m2
19:04 16.4 °C 10.1 °C 1016.1 hPa WNW 14.5 km/h 29 km/h 66.2% 0 mm 197 W/m2
19:09 16.3 °C 10.1 °C 1016.1 hPa WNW 10.1 km/h 29 km/h 66.8% 0 mm 167 W/m2
19:14 16.2 °C 10.3 °C 1016.1 hPa WNW 9 km/h 22.5 km/h 67.6% 0 mm 162 W/m2
19:19 16.3 °C 10.2 °C 1016.1 hPa West 15.4 km/h 24.1 km/h 67.1% 0 mm 149 W/m2
19:24 16.1 °C 10 °C 1016.5 hPa West 12.6 km/h 27.4 km/h 67% 0 mm 135 W/m2
19:29 16 °C 9.9 °C 1016.5 hPa WNW 10 km/h 27.4 km/h 67.3% 0 mm 116 W/m2
19:34 16 °C 10.1 °C 1016.5 hPa WNW 9.7 km/h 20.9 km/h 68% 0 mm 100 W/m2
19:39 15.9 °C 10 °C 1016.5 hPa WNW 10 km/h 24.1 km/h 68% 0 mm 84 W/m2
19:44 15.8 °C 9.9 °C 1016.5 hPa West 10.9 km/h 24.1 km/h 68.5% 0 mm 72 W/m2
19:49 15.5 °C 9.7 °C 1016.8 hPa West 11.3 km/h 24.1 km/h 68.8% 0 mm 58 W/m2
19:54 15.3 °C 9.6 °C 1016.8 hPa West 10.8 km/h 22.5 km/h 69% 0 mm 47 W/m2
19:59 15.2 °C 9.5 °C 1016.8 hPa West 10.3 km/h 19.3 km/h 69% 0 mm 42 W/m2
20:04 15.1 °C 9.7 °C 1016.8 hPa WNW 10.8 km/h 20.9 km/h 70% 0 mm 33 W/m2
20:09 14.9 °C 9.5 °C 1016.8 hPa WNW 7.6 km/h 20.9 km/h 69.9% 0 mm 26 W/m2
20:14 14.8 °C 9.4 °C 1016.8 hPa WNW 9.3 km/h 14.5 km/h 70% 0 mm 21 W/m2
20:19 14.7 °C 9.3 °C 1016.8 hPa WNW 9.2 km/h 16.1 km/h 70.3% 0 mm 16 W/m2
20:24 14.4 °C 9.3 °C 1017.2 hPa WNW 5.8 km/h 12.9 km/h 71% 0 mm 14 W/m2
20:29 14.3 °C 9.2 °C 1017.2 hPa West 7.2 km/h 12.9 km/h 71% 0 mm 11 W/m2
20:34 14.2 °C 9.2 °C 1017.2 hPa West 6.1 km/h 11.3 km/h 71.9% 0 mm 7 W/m2
20:39 14.1 °C 9.1 °C 1017.2 hPa West 4.3 km/h 11.3 km/h 72% 0 mm 5 W/m2
20:44 13.9 °C 9 °C 1017.2 hPa West 4.3 km/h 9.7 km/h 72.1% 0 mm 0 W/m2
20:49 13.9 °C 9.1 °C 1017.2 hPa West 4.3 km/h 11.3 km/h 73% 0 mm 0 W/m2
20:54 13.8 °C 8.9 °C 1017.5 hPa West 2.9 km/h 11.3 km/h 73% 0 mm 0 W/m2
20:59 13.7 °C 8.9 °C 1017.5 hPa West 2.7 km/h 8 km/h 73.3% 0 mm 0 W/m2
21:04 13.5 °C 9 °C 1017.5 hPa West 2.6 km/h 6.4 km/h 73.9% 0 mm 0 W/m2
21:09 13.4 °C 8.9 °C 1017.5 hPa West 2.9 km/h 6.4 km/h 74% 0 mm 0 W/m2
21:14 13.4 °C 8.9 °C 1017.5 hPa West 1 km/h 6.4 km/h 74% 0 mm 0 W/m2
21:19 13.3 °C 8.8 °C 1017.5 hPa West 1.4 km/h 4.8 km/h 74% 0 mm 0 W/m2
21:24 13.2 °C 8.7 °C 1017.5 hPa West 1.3 km/h 4.8 km/h 74% 0 mm 0 W/m2
21:29 13.2 °C 8.8 °C 1017.5 hPa West 2.3 km/h 6.4 km/h 74.4% 0 mm 0 W/m2
21:34 13.1 °C 8.8 °C 1017.5 hPa West 1.8 km/h 6.4 km/h 75% 0 mm 0 W/m2
21:39 13 °C 8.7 °C 1017.5 hPa West 2.3 km/h 4.8 km/h 75% 0 mm 0 W/m2
21:44 12.9 °C 8.7 °C 1017.8 hPa West 0.8 km/h 4.8 km/h 75% 0 mm 0 W/m2
21:49 12.9 °C 8.6 °C 1017.8 hPa West 1.3 km/h 6.4 km/h 75% 0 mm 0 W/m2
21:54 12.8 °C 8.7 °C 1017.8 hPa West 2.4 km/h 8 km/h 75.9% 0 mm 0 W/m2
21:59 12.8 °C 8.8 °C 1017.8 hPa West 3.9 km/h 11.3 km/h 76% 0 mm 0 W/m2
22:04 12.9 °C 9 °C 1017.8 hPa West 6 km/h 12.9 km/h 76.8% 0 mm 0 W/m2
22:09 13 °C 9.3 °C 1017.8 hPa West 7.9 km/h 19.3 km/h 78.2% 0.25 mm 0 W/m2
22:14 13 °C 9.5 °C 1017.8 hPa West 8 km/h 19.3 km/h 79.5% 0.25 mm 0 W/m2
22:19 12.9 °C 9.8 °C 1017.8 hPa WSW 4.8 km/h 14.5 km/h 81.4% 0.25 mm 0 W/m2
22:24 12.8 °C 9.8 °C 1018.2 hPa WSW 5.1 km/h 14.5 km/h 82.3% 0.25 mm 0 W/m2
22:29 12.7 °C 9.9 °C 1018.2 hPa West 5.3 km/h 14.5 km/h 83% 0.51 mm 0 W/m2
22:34 12.4 °C 9.8 °C 1018.2 hPa West 13.4 km/h 24.1 km/h 83.9% 0.76 mm 0 W/m2
22:39 12.1 °C 9.6 °C 1018.2 hPa West 11.7 km/h 19.3 km/h 84.8% 1.02 mm 0 W/m2
22:44 11.7 °C 9.4 °C 1018.2 hPa West 5.5 km/h 19.3 km/h 85.9% 1.52 mm 0 W/m2
22:49 11.4 °C 9.3 °C 1018.2 hPa West 8.2 km/h 14.5 km/h 86.7% 2.03 mm 0 W/m2
22:54 11.2 °C 9.1 °C 1018.2 hPa West 6.9 km/h 16.1 km/h 87% 2.29 mm 0 W/m2
22:59 11 °C 9.1 °C 1018.2 hPa West 3.5 km/h 11.3 km/h 87.8% 2.54 mm 0 W/m2
23:04 10.9 °C 9 °C 1018.2 hPa WNW 4.2 km/h 11.3 km/h 88% 2.79 mm 0 W/m2
23:09 10.9 °C 9.1 °C 1018.2 hPa WNW 2.4 km/h 8 km/h 88.6% 3.05 mm 0 W/m2
23:14 10.8 °C 9.2 °C 1018.2 hPa WNW 1.4 km/h 6.4 km/h 89% 2.79 mm 0 W/m2
23:19 10.8 °C 9.1 °C 1017.8 hPa Calm   3.2 km/h 89% 2.79 mm 0 W/m2
23:24 10.8 °C 9.2 °C 1017.8 hPa WNW 0.2 km/h 1.6 km/h 89.8% 2.79 mm 0 W/m2
23:29 10.8 °C 9.2 °C 1017.8 hPa Calm   1.6 km/h 90% 2.79 mm 0 W/m2
23:34 10.8 °C 9.2 °C 1017.8 hPa Calm   1.6 km/h 90% 2.79 mm 0 W/m2
23:39 10.8 °C 9.2 °C 1017.8 hPa Calm     90% 2.29 mm 0 W/m2
23:44 10.9 °C 9.3 °C 1017.8 hPa Calm     90% 2.03 mm 0 W/m2
23:49 11 °C 9.4 °C 1017.8 hPa Calm     90.1% 1.52 mm 0 W/m2
23:54 11 °C 9.6 °C 1017.8 hPa Calm     90.6% 1.02 mm 0 W/m2
23:59 11 °C 9.6 °C 1017.5 hPa WNW 0.5 km/h 1.6 km/h 91% 1.02 mm 0 W/m2
Bath Spa Weather
Compliments of Weather Underground - 2 mb